PWSweather.com
Personal Weather Stations
Station Observations

MakarauRodneyNZ

Lat: -36.52421, Lon: 174.47572

Elevation: 606

Station Type: Davis VP2

http://kaiparaweather.dynu.net/index.php

High Low Average
Temperature 78.5°F25.8°C 60.3°F15.7°C 68.1°F20.1°C
Dew Point 68.0°F20.0°C 58.0°F14.4°C 62.6°F17.0°C
Winds 10.4 mph 16.7 kmh Calm Calm 1.0 mph SE1.6 kmh SE
Wind Gusts 13.8 mph22.2 kmh -- 2.0 mph3.2 kmh
Humidity 96% 64% 83%
Pressure 30.27 in1025.1 mb 30.15 in1021.0 mb -
Precipitation 0.01 in0.3 mm - -
Hour Temp Dew Point Humidity Winds Wind Gusts Pressure Precip Precip Rate Daily Precip Total
12:00 AM 61.8°F16.6°C 59.8°F15.4°C 93% Calm Calm -- 30.17 in1021.7 mb - 0.00 in0.0 mm 0.00 in0.0 mm
12:10 AM 61.8°F16.6°C 59.8°F15.4°C 93% Calm Calm -- 30.17 in1021.7 mb - 0.00 in0.0 mm 0.00 in0.0 mm
12:20 AM 61.7°F16.5°C 59.7°F15.4°C 93% Calm Calm -- 30.17 in1021.7 mb - 0.00 in0.0 mm 0.00 in0.0 mm
12:30 AM 61.6°F16.4°C 59.6°F15.3°C 93% Calm Calm -- 30.17 in1021.7 mb - 0.00 in0.0 mm 0.00 in0.0 mm
12:40 AM 61.6°F16.4°C 59.6°F15.3°C 93% Calm Calm -- 30.17 in1021.7 mb - 0.00 in0.0 mm 0.00 in0.0 mm
12:50 AM 61.5°F16.4°C 59.5°F15.3°C 93% Calm Calm -- 30.17 in1021.7 mb - 0.00 in0.0 mm 0.00 in0.0 mm
01:00 AM 61.6°F16.4°C 59.6°F15.3°C 93% Calm Calm -- 30.17 in1021.7 mb - 0.00 in0.0 mm 0.00 in0.0 mm
01:10 AM 61.5°F16.4°C 59.5°F15.3°C 93% Calm Calm -- 30.16 in1021.3 mb - 0.00 in0.0 mm 0.00 in0.0 mm
01:20 AM 61.3°F16.3°C 59.3°F15.2°C 93% Calm Calm -- 30.16 in1021.3 mb - 0.00 in0.0 mm 0.00 in0.0 mm
01:30 AM 61.2°F16.2°C 59.5°F15.3°C 94% Calm Calm -- 30.16 in1021.3 mb - 0.00 in0.0 mm 0.00 in0.0 mm
01:40 AM 61.2°F16.2°C 59.5°F15.3°C 94% Calm Calm -- 30.15 in1021.0 mb - 0.00 in0.0 mm 0.00 in0.0 mm
01:50 AM 61.1°F16.2°C 59.4°F15.2°C 94% Calm Calm -- 30.15 in1021.0 mb - 0.00 in0.0 mm 0.00 in0.0 mm
02:00 AM 61.0°F16.1°C 59.3°F15.2°C 94% Calm Calm -- 30.16 in1021.3 mb - 0.00 in0.0 mm 0.00 in0.0 mm
02:10 AM 61.2°F16.2°C 59.5°F15.3°C 94% Calm Calm -- 30.16 in1021.3 mb - 0.00 in0.0 mm 0.00 in0.0 mm
02:20 AM 61.1°F16.2°C 59.4°F15.2°C 94% Calm Calm -- 30.16 in1021.3 mb - 0.00 in0.0 mm 0.00 in0.0 mm
02:30 AM 60.8°F16.0°C 59.1°F15.1°C 94% Calm Calm -- 30.16 in1021.3 mb - 0.00 in0.0 mm 0.00 in0.0 mm
02:40 AM 60.8°F16.0°C 59.1°F15.1°C 94% Calm Calm -- 30.16 in1021.3 mb - 0.00 in0.0 mm 0.00 in0.0 mm
02:50 AM 61.1°F16.2°C 59.3°F15.2°C 94% Calm Calm -- 30.16 in1021.3 mb - 0.00 in0.0 mm 0.00 in0.0 mm
03:00 AM 60.8°F16.0°C 59.1°F15.1°C 94% Calm Calm -- 30.16 in1021.3 mb - 0.00 in0.0 mm 0.00 in0.0 mm
03:10 AM 60.6°F15.9°C 58.9°F14.9°C 94% Calm Calm -- 30.16 in1021.3 mb - 0.00 in0.0 mm 0.00 in0.0 mm
03:20 AM 60.6°F15.9°C 58.9°F14.9°C 94% Calm Calm -- 30.16 in1021.3 mb - 0.00 in0.0 mm 0.00 in0.0 mm
03:30 AM 60.8°F16.0°C 59.1°F15.1°C 94% Calm Calm -- 30.16 in1021.3 mb - 0.00 in0.0 mm 0.00 in0.0 mm
03:40 AM 60.9°F16.1°C 59.1°F15.1°C 94% Calm Calm -- 30.16 in1021.3 mb - 0.00 in0.0 mm 0.00 in0.0 mm
03:50 AM 61.0°F16.1°C 59.3°F15.2°C 94% Calm Calm -- 30.17 in1021.7 mb - 0.00 in0.0 mm 0.00 in0.0 mm
04:00 AM 61.0°F16.1°C 59.3°F15.2°C 94% Calm Calm -- 30.17 in1021.7 mb - 0.00 in0.0 mm 0.00 in0.0 mm
04:10 AM 60.8°F16.0°C 59.1°F15.1°C 94% Calm Calm -- 30.17 in1021.7 mb - 0.00 in0.0 mm 0.00 in0.0 mm
04:20 AM 60.7°F15.9°C 58.9°F14.9°C 94% Calm Calm -- 30.17 in1021.7 mb - 0.00 in0.0 mm 0.00 in0.0 mm
04:30 AM 60.6°F15.9°C 58.8°F14.9°C 94% Calm Calm -- 30.17 in1021.7 mb - 0.00 in0.0 mm 0.00 in0.0 mm
04:40 AM 60.4°F15.8°C 58.7°F14.8°C 94% Calm Calm -- 30.18 in1022.0 mb - 0.00 in0.0 mm 0.00 in0.0 mm
04:50 AM 60.3°F15.7°C 58.6°F14.8°C 94% Calm Calm -- 30.18 in1022.0 mb - 0.00 in0.0 mm 0.00 in0.0 mm
05:00 AM 60.4°F15.8°C 59.0°F15.0°C 95% Calm Calm -- 30.19 in1022.4 mb - 0.00 in0.0 mm 0.00 in0.0 mm
05:10 AM 60.5°F15.8°C 59.1°F15.1°C 95% Calm Calm -- 30.19 in1022.4 mb - 0.00 in0.0 mm 0.00 in0.0 mm
05:20 AM 60.5°F15.8°C 59.1°F15.1°C 95% Calm Calm -- 30.20 in1022.7 mb - 0.00 in0.0 mm 0.00 in0.0 mm
05:30 AM 60.6°F15.9°C 59.1°F15.1°C 95% Calm Calm -- 30.20 in1022.7 mb - 0.00 in0.0 mm 0.00 in0.0 mm
05:40 AM 60.7°F15.9°C 59.3°F15.2°C 95% Calm Calm -- 30.20 in1022.7 mb - 0.00 in0.0 mm 0.00 in0.0 mm
05:50 AM 60.9°F16.1°C 59.5°F15.3°C 95% Calm Calm -- 30.20 in1022.7 mb - 0.00 in0.0 mm 0.00 in0.0 mm
06:00 AM 61.1°F16.2°C 59.7°F15.4°C 95% Calm Calm -- 30.21 in1023.0 mb - 0.00 in0.0 mm 0.00 in0.0 mm
06:10 AM 61.4°F16.3°C 60.0°F15.6°C 95% Calm Calm -- 30.21 in1023.0 mb - 0.00 in0.0 mm 0.00 in0.0 mm
06:20 AM 61.8°F16.6°C 60.3°F15.7°C 95% Calm Calm -- 30.22 in1023.4 mb - 0.00 in0.0 mm 0.00 in0.0 mm
06:30 AM 62.6°F17.0°C 61.4°F16.3°C 96% Calm Calm -- 30.22 in1023.4 mb - 0.00 in0.0 mm 0.00 in0.0 mm
06:40 AM 63.6°F17.6°C 62.4°F16.9°C 96% Calm Calm -- 30.22 in1023.4 mb - 0.00 in0.0 mm 0.00 in0.0 mm
06:50 AM 64.2°F17.9°C 63.0°F17.2°C 96% Calm Calm -- 30.23 in1023.7 mb - 0.00 in0.0 mm 0.00 in0.0 mm
07:00 AM 64.7°F18.2°C 63.3°F17.4°C 95% Calm Calm -- 30.23 in1023.7 mb - 0.00 in0.0 mm 0.00 in0.0 mm
07:10 AM 64.9°F18.3°C 63.4°F17.4°C 95% Calm Calm -- 30.23 in1023.7 mb - 0.00 in0.0 mm 0.00 in0.0 mm
07:20 AM 65.8°F18.8°C 64.3°F17.9°C 95% Calm Calm -- 30.24 in1024.0 mb - 0.00 in0.0 mm 0.00 in0.0 mm
07:30 AM 66.5°F19.2°C 65.0°F18.3°C 95% Calm Calm -- 30.24 in1024.0 mb - 0.00 in0.0 mm 0.00 in0.0 mm
07:40 AM 66.5°F19.2°C 64.8°F18.2°C 94% Calm Calm -- 30.24 in1024.0 mb - 0.00 in0.0 mm 0.00 in0.0 mm
07:50 AM 67.7°F19.8°C 65.9°F18.8°C 94% Calm Calm -- 30.24 in1024.0 mb - 0.00 in0.0 mm 0.00 in0.0 mm
08:00 AM 68.5°F20.3°C 66.4°F19.1°C 93% Calm Calm -- 30.24 in1024.0 mb - 0.00 in0.0 mm 0.00 in0.0 mm
08:10 AM 69.6°F20.9°C 66.5°F19.2°C 90% Calm Calm -- 30.24 in1024.0 mb - 0.00 in0.0 mm 0.00 in0.0 mm
08:20 AM 70.8°F21.6°C 67.1°F19.5°C 88% Calm Calm -- 30.24 in1024.0 mb - 0.00 in0.0 mm 0.00 in0.0 mm
08:30 AM 71.0°F21.7°C 66.6°F19.2°C 86% Calm Calm -- 30.24 in1024.0 mb - 0.01 in0.3 mm 0.01 in0.3 mm
08:40 AM 70.7°F21.5°C 66.0°F18.9°C 85% Calm Calm -- 30.24 in1024.0 mb - 0.00 in0.0 mm 0.01 in0.3 mm
08:50 AM 71.2°F21.8°C 66.4°F19.1°C 85% Calm Calm -- 30.24 in1024.0 mb - 0.00 in0.0 mm 0.01 in0.3 mm
09:00 AM 71.6°F22.0°C 65.8°F18.8°C 82% Calm Calm -- 30.24 in1024.0 mb - 0.00 in0.0 mm 0.01 in0.3 mm
09:10 AM 72.8°F22.7°C 66.3°F19.1°C 80% Calm Calm -- 30.23 in1023.7 mb - 0.00 in0.0 mm 0.01 in0.3 mm
09:20 AM 74.2°F23.4°C 65.4°F18.6°C 74% Calm Calm -- 30.23 in1023.7 mb - 0.00 in0.0 mm 0.01 in0.3 mm
09:30 AM 75.2°F24.0°C 64.3°F17.9°C 69% Calm Calm -- 30.23 in1023.7 mb - 0.00 in0.0 mm 0.01 in0.3 mm
09:40 AM 75.3°F24.1°C 64.0°F17.8°C 68% Calm Calm 1.2 mph1.9 kmh 30.23 in1023.7 mb - 0.00 in0.0 mm 0.01 in0.3 mm
09:50 AM 75.4°F24.1°C 66.6°F19.2°C 74% Calm Calm 1.2 mph1.9 kmh 30.23 in1023.7 mb - 0.00 in0.0 mm 0.01 in0.3 mm
10:00 AM 75.7°F24.3°C 65.2°F18.4°C 70% Calm Calm -- 30.23 in1023.7 mb - 0.00 in0.0 mm 0.01 in0.3 mm
10:10 AM 77.7°F25.4°C 68.0°F20.0°C 72% Calm Calm -- 30.23 in1023.7 mb - 0.00 in0.0 mm 0.01 in0.3 mm
10:20 AM 78.2°F25.7°C 66.7°F19.3°C 68% Calm Calm -- 30.23 in1023.7 mb - 0.00 in0.0 mm 0.01 in0.3 mm
10:30 AM 76.8°F24.9°C 65.0°F18.3°C 67% Calm Calm -- 30.23 in1023.7 mb - 0.00 in0.0 mm 0.01 in0.3 mm
10:40 AM 76.5°F24.7°C 64.7°F18.2°C 67% Calm Calm -- 30.22 in1023.4 mb - 0.00 in0.0 mm 0.01 in0.3 mm
10:50 AM 76.8°F24.9°C 63.7°F17.6°C 64% Calm Calm -- 30.22 in1023.4 mb - 0.00 in0.0 mm 0.01 in0.3 mm
11:00 AM 78.3°F25.7°C 66.4°F19.1°C 67% Calm Calm -- 30.23 in1023.7 mb - 0.00 in0.0 mm 0.01 in0.3 mm
11:10 AM 78.1°F25.6°C 65.8°F18.8°C 66% Calm Calm 1.2 mph1.9 kmh 30.23 in1023.7 mb - 0.00 in0.0 mm 0.01 in0.3 mm
11:20 AM 78.5°F25.8°C 66.6°F19.2°C 67% Calm Calm -- 30.23 in1023.7 mb - 0.00 in0.0 mm 0.01 in0.3 mm
11:30 AM 77.8°F25.4°C 66.4°F19.1°C 68% Calm Calm -- 30.23 in1023.7 mb - 0.00 in0.0 mm 0.01 in0.3 mm
11:40 AM 76.9°F24.9°C 66.8°F19.3°C 71% Calm Calm 2.3 mph3.7 kmh 30.23 in1023.7 mb - 0.00 in0.0 mm 0.01 in0.3 mm
11:50 AM 77.0°F25.0°C 65.6°F18.7°C 68% Calm Calm -- 30.23 in1023.7 mb - 0.00 in0.0 mm 0.01 in0.3 mm
12:00 PM 76.4°F24.7°C 63.7°F17.6°C 65% Calm Calm -- 30.23 in1023.7 mb - 0.00 in0.0 mm 0.01 in0.3 mm
12:10 PM 75.6°F24.2°C 64.8°F18.2°C 69% Calm Calm -- 30.22 in1023.4 mb - 0.00 in0.0 mm 0.01 in0.3 mm
12:20 PM 76.8°F24.9°C 64.6°F18.1°C 66% Calm Calm 2.3 mph3.7 kmh 30.22 in1023.4 mb - 0.00 in0.0 mm 0.01 in0.3 mm
12:30 PM 74.0°F23.3°C 63.6°F17.6°C 70% Calm Calm 3.5 mph5.6 kmh 30.22 in1023.4 mb - 0.00 in0.0 mm 0.01 in0.3 mm
12:40 PM 72.1°F22.3°C 64.1°F17.8°C 76% 6.9 mph SW11.1 kmh SW 9.2 mph14.8 kmh 30.22 in1023.4 mb - 0.00 in0.0 mm 0.01 in0.3 mm
12:50 PM 71.2°F21.8°C 64.0°F17.8°C 78% Calm Calm -- 30.22 in1023.4 mb - 0.00 in0.0 mm 0.01 in0.3 mm
01:00 PM 73.1°F22.8°C 66.2°F19.0°C 79% Calm Calm -- 30.22 in1023.4 mb - 0.00 in0.0 mm 0.01 in0.3 mm
01:10 PM 75.5°F24.2°C 67.4°F19.7°C 76% 2.3 mph WNW3.7 kmh WNW 10.4 mph16.7 kmh 30.21 in1023.0 mb - 0.00 in0.0 mm 0.01 in0.3 mm
01:20 PM 75.6°F24.2°C 66.3°F19.1°C 73% 3.5 mph SW5.6 kmh SW 10.4 mph16.7 kmh 30.21 in1023.0 mb - 0.00 in0.0 mm 0.01 in0.3 mm
01:30 PM 75.4°F24.1°C 65.8°F18.8°C 72% 8.1 mph NNW13.0 kmh NNW 11.5 mph18.5 kmh 30.21 in1023.0 mb - 0.00 in0.0 mm 0.01 in0.3 mm
01:40 PM 75.4°F24.1°C 66.5°F19.2°C 74% 6.9 mph SW11.1 kmh SW 9.2 mph14.8 kmh 30.21 in1023.0 mb - 0.00 in0.0 mm 0.01 in0.3 mm
01:50 PM 74.3°F23.5°C 65.5°F18.6°C 74% 1.2 mph NNW1.9 kmh NNW 3.5 mph5.6 kmh 30.21 in1023.0 mb - 0.00 in0.0 mm 0.01 in0.3 mm
02:00 PM 74.7°F23.7°C 65.9°F18.8°C 74% Calm Calm 2.3 mph3.7 kmh 30.21 in1023.0 mb - 0.00 in0.0 mm 0.01 in0.3 mm
02:10 PM 75.3°F24.1°C 65.6°F18.7°C 72% 8.1 mph NNW13.0 kmh NNW 10.4 mph16.7 kmh 30.21 in1023.0 mb - 0.00 in0.0 mm 0.01 in0.3 mm
02:20 PM 74.7°F23.7°C 65.1°F18.4°C 72% 4.6 mph NW7.4 kmh NW 6.9 mph11.1 kmh 30.21 in1023.0 mb - 0.00 in0.0 mm 0.01 in0.3 mm
02:30 PM 73.8°F23.2°C 65.0°F18.3°C 74% 2.3 mph SW3.7 kmh SW 2.3 mph3.7 kmh 30.21 in1023.0 mb - 0.00 in0.0 mm 0.01 in0.3 mm
02:40 PM 74.7°F23.7°C 65.9°F18.8°C 74% 5.8 mph W9.3 kmh W 11.5 mph18.5 kmh 30.20 in1022.7 mb - 0.00 in0.0 mm 0.01 in0.3 mm
02:50 PM 74.8°F23.8°C 65.1°F18.4°C 72% 4.6 mph SW7.4 kmh SW 9.2 mph14.8 kmh 30.21 in1023.0 mb - 0.00 in0.0 mm 0.01 in0.3 mm
03:00 PM 72.3°F22.4°C 64.3°F17.9°C 76% 1.2 mph WSW1.9 kmh WSW -- 30.21 in1023.0 mb - 0.00 in0.0 mm 0.01 in0.3 mm
03:10 PM 73.3°F22.9°C 64.9°F18.3°C 75% 8.1 mph SW13.0 kmh SW 11.5 mph18.5 kmh 30.20 in1022.7 mb - 0.00 in0.0 mm 0.01 in0.3 mm
03:20 PM 75.1°F23.9°C 66.3°F19.1°C 74% 5.8 mph SW9.3 kmh SW 4.6 mph7.4 kmh 30.20 in1022.7 mb - 0.00 in0.0 mm 0.01 in0.3 mm
03:30 PM 75.3°F24.1°C 65.6°F18.7°C 72% 10.4 mph SW16.7 kmh SW 13.8 mph22.2 kmh 30.19 in1022.4 mb - 0.00 in0.0 mm 0.01 in0.3 mm
03:40 PM 74.8°F23.8°C 65.1°F18.4°C 72% 6.9 mph SW11.1 kmh SW 10.4 mph16.7 kmh 30.19 in1022.4 mb - 0.00 in0.0 mm 0.01 in0.3 mm
03:50 PM 74.5°F23.6°C 65.7°F18.7°C 74% 1.2 mph SW1.9 kmh SW 4.6 mph7.4 kmh 30.19 in1022.4 mb - 0.00 in0.0 mm 0.01 in0.3 mm
04:00 PM 75.6°F24.2°C 65.9°F18.8°C 72% Calm Calm -- 30.19 in1022.4 mb - 0.00 in0.0 mm 0.01 in0.3 mm
04:10 PM 75.2°F24.0°C 65.5°F18.6°C 72% 2.3 mph WSW3.7 kmh WSW 5.8 mph9.3 kmh 30.19 in1022.4 mb - 0.00 in0.0 mm 0.01 in0.3 mm
04:20 PM 75.0°F23.9°C 66.2°F19.0°C 74% 6.9 mph WSW11.1 kmh WSW 8.1 mph13.0 kmh 30.19 in1022.4 mb - 0.00 in0.0 mm 0.01 in0.3 mm
04:30 PM 75.4°F24.1°C 65.8°F18.8°C 72% 3.5 mph SW5.6 kmh SW 8.1 mph13.0 kmh 30.19 in1022.4 mb - 0.00 in0.0 mm 0.01 in0.3 mm
04:40 PM 74.5°F23.6°C 65.3°F18.5°C 73% 1.2 mph WSW1.9 kmh WSW -- 30.19 in1022.4 mb - 0.00 in0.0 mm 0.01 in0.3 mm
04:50 PM 73.7°F23.2°C 64.9°F18.3°C 74% 1.2 mph NW1.9 kmh NW 8.1 mph13.0 kmh 30.19 in1022.4 mb - 0.00 in0.0 mm 0.01 in0.3 mm
05:00 PM 73.5°F23.1°C 64.7°F18.2°C 74% 1.2 mph NW1.9 kmh NW 6.9 mph11.1 kmh 30.19 in1022.4 mb - 0.00 in0.0 mm 0.01 in0.3 mm
05:10 PM 72.7°F22.6°C 64.3°F17.9°C 75% Calm Calm -- 30.19 in1022.4 mb - 0.00 in0.0 mm 0.01 in0.3 mm
05:20 PM 72.0°F22.2°C 64.0°F17.8°C 76% 5.8 mph SW9.3 kmh SW 11.5 mph18.5 kmh 30.19 in1022.4 mb - 0.00 in0.0 mm 0.01 in0.3 mm
05:30 PM 70.7°F21.5°C 63.1°F17.3°C 77% 5.8 mph SW9.3 kmh SW 8.1 mph13.0 kmh 30.19 in1022.4 mb - 0.00 in0.0 mm 0.01 in0.3 mm
05:40 PM 70.4°F21.3°C 63.2°F17.3°C 78% Calm Calm -- 30.19 in1022.4 mb - 0.00 in0.0 mm 0.01 in0.3 mm
05:50 PM 69.9°F21.1°C 63.1°F17.3°C 79% 4.6 mph SW7.4 kmh SW 5.8 mph9.3 kmh 30.20 in1022.7 mb - 0.00 in0.0 mm 0.01 in0.3 mm
06:00 PM 70.2°F21.2°C 63.8°F17.7°C 80% Calm Calm -- 30.20 in1022.7 mb - 0.00 in0.0 mm 0.01 in0.3 mm
06:10 PM 71.4°F21.9°C 64.2°F17.9°C 78% Calm Calm -- 30.20 in1022.7 mb - 0.00 in0.0 mm 0.01 in0.3 mm
06:20 PM 71.0°F21.7°C 63.8°F17.7°C 78% Calm Calm 3.5 mph5.6 kmh 30.20 in1022.7 mb - 0.00 in0.0 mm 0.01 in0.3 mm
06:30 PM 70.9°F21.6°C 64.1°F17.8°C 79% 1.2 mph SW1.9 kmh SW 3.5 mph5.6 kmh 30.20 in1022.7 mb - 0.00 in0.0 mm 0.01 in0.3 mm
06:40 PM 71.1°F21.7°C 63.9°F17.7°C 78% Calm Calm -- 30.20 in1022.7 mb - 0.00 in0.0 mm 0.01 in0.3 mm
06:50 PM 70.8°F21.6°C 63.6°F17.6°C 78% Calm Calm -- 30.21 in1023.0 mb - 0.00 in0.0 mm 0.01 in0.3 mm
07:00 PM 70.5°F21.4°C 63.4°F17.4°C 78% Calm Calm -- 30.21 in1023.0 mb - 0.00 in0.0 mm 0.01 in0.3 mm
07:10 PM 69.9°F21.1°C 63.4°F17.4°C 80% Calm Calm -- 30.21 in1023.0 mb - 0.00 in0.0 mm 0.01 in0.3 mm
07:20 PM 69.8°F21.0°C 63.3°F17.4°C 80% Calm Calm -- 30.21 in1023.0 mb - 0.00 in0.0 mm 0.01 in0.3 mm
07:30 PM 69.7°F20.9°C 63.6°F17.6°C 81% Calm Calm -- 30.22 in1023.4 mb - 0.00 in0.0 mm 0.01 in0.3 mm
07:40 PM 69.3°F20.7°C 63.2°F17.3°C 81% Calm Calm -- 30.22 in1023.4 mb - 0.00 in0.0 mm 0.01 in0.3 mm
07:50 PM 68.7°F20.4°C 63.0°F17.2°C 82% Calm Calm -- 30.22 in1023.4 mb - 0.00 in0.0 mm 0.01 in0.3 mm
08:00 PM 68.1°F20.1°C 62.7°F17.1°C 83% Calm Calm -- 30.23 in1023.7 mb - 0.00 in0.0 mm 0.01 in0.3 mm
08:10 PM 67.4°F19.7°C 62.4°F16.9°C 84% Calm Calm -- 30.23 in1023.7 mb - 0.00 in0.0 mm 0.01 in0.3 mm
08:20 PM 66.7°F19.3°C 62.1°F16.7°C 85% Calm Calm -- 30.23 in1023.7 mb - 0.00 in0.0 mm 0.01 in0.3 mm
08:30 PM 66.2°F19.0°C 61.3°F16.3°C 84% Calm Calm -- 30.23 in1023.7 mb - 0.00 in0.0 mm 0.01 in0.3 mm
08:40 PM 66.0°F18.9°C 61.0°F16.1°C 84% Calm Calm -- 30.24 in1024.0 mb - 0.00 in0.0 mm 0.01 in0.3 mm
08:50 PM 65.8°F18.8°C 60.8°F16.0°C 84% Calm Calm -- 30.24 in1024.0 mb - 0.00 in0.0 mm 0.01 in0.3 mm
09:00 PM 65.7°F18.7°C 60.7°F15.9°C 84% Calm Calm -- 30.24 in1024.0 mb - 0.00 in0.0 mm 0.01 in0.3 mm
09:10 PM 65.3°F18.5°C 60.7°F15.9°C 85% Calm Calm -- 30.25 in1024.4 mb - 0.00 in0.0 mm 0.01 in0.3 mm
09:20 PM 65.0°F18.3°C 60.4°F15.8°C 85% Calm Calm -- 30.25 in1024.4 mb - 0.00 in0.0 mm 0.01 in0.3 mm
09:30 PM 64.7°F18.2°C 60.4°F15.8°C 86% Calm Calm -- 30.25 in1024.4 mb - 0.00 in0.0 mm 0.01 in0.3 mm
09:40 PM 64.4°F18.0°C 60.1°F15.6°C 86% Calm Calm -- 30.25 in1024.4 mb - 0.00 in0.0 mm 0.01 in0.3 mm
09:50 PM 64.1°F17.8°C 59.8°F15.4°C 86% Calm Calm -- 30.25 in1024.4 mb - 0.00 in0.0 mm 0.01 in0.3 mm
10:00 PM 63.8°F17.7°C 59.9°F15.5°C 87% Calm Calm -- 30.26 in1024.7 mb - 0.00 in0.0 mm 0.01 in0.3 mm
10:10 PM 63.6°F17.6°C 59.6°F15.3°C 87% Calm Calm -- 30.26 in1024.7 mb - 0.00 in0.0 mm 0.01 in0.3 mm
10:20 PM 63.2°F17.3°C 59.3°F15.2°C 87% Calm Calm -- 30.26 in1024.7 mb - 0.00 in0.0 mm 0.01 in0.3 mm
10:30 PM 62.9°F17.2°C 59.0°F15.0°C 87% Calm Calm -- 30.27 in1025.1 mb - 0.00 in0.0 mm 0.01 in0.3 mm
10:40 PM 62.8°F17.1°C 58.8°F14.9°C 87% Calm Calm -- 30.27 in1025.1 mb - 0.00 in0.0 mm 0.01 in0.3 mm
10:50 PM 62.6°F17.0°C 58.7°F14.8°C 87% Calm Calm -- 30.27 in1025.1 mb - 0.00 in0.0 mm 0.01 in0.3 mm
11:00 PM 62.5°F16.9°C 58.6°F14.8°C 87% Calm Calm -- 30.27 in1025.1 mb - 0.00 in0.0 mm 0.01 in0.3 mm
11:10 PM 62.3°F16.8°C 58.4°F14.7°C 87% Calm Calm -- 30.27 in1025.1 mb - 0.00 in0.0 mm 0.01 in0.3 mm
11:20 PM 62.1°F16.7°C 58.2°F14.6°C 87% Calm Calm -- 30.27 in1025.1 mb - 0.00 in0.0 mm 0.01 in0.3 mm
11:30 PM 62.0°F16.7°C 58.1°F14.5°C 87% Calm Calm -- 30.27 in1025.1 mb - 0.00 in0.0 mm 0.01 in0.3 mm
11:40 PM 61.9°F16.6°C 58.0°F14.4°C 87% Calm Calm -- 30.26 in1024.7 mb - 0.00 in0.0 mm 0.01 in0.3 mm
11:50 PM 61.9°F16.6°C 58.0°F14.4°C 87% Calm Calm -- 30.26 in1024.7 mb - 0.00 in0.0 mm 0.01 in0.3 mm